Time;durP1;ratioP1;P1;durP2;ratioP2;P2;SDS_P1;SDS_P2;PMS_P1;PMS_P2;Temp;Humidity;BMP_temperature;BMP_pressure;BME280_temperature;BME280_humidity;BME280_pressure;Samples;Min_cycle;Max_cycle;Signal;HPM_P1;HPM_P2
2022/06/12 00:00:49;;;;;;;10.43;3.40;;;28.40;90.00;;;;;;5007088;28;20073;-45
2022/06/12 00:03:18;;;;;;;8.73;3.00;;;28.40;89.90;;;;;;5006645;28;20057;-45
2022/06/12 00:05:48;;;;;;;10.05;3.33;;;28.40;90.00;;;;;;5006126;28;20022;-53
2022/06/12 00:08:15;;;;;;;9.95;3.25;;;28.40;90.00;;;;;;5006651;28;20209;-52
2022/06/12 00:10:44;;;;;;;8.68;3.40;;;28.30;90.00;;;;;;5006863;28;20027;-52
2022/06/12 00:13:14;;;;;;;10.70;3.28;;;28.30;90.10;;;;;;5006589;28;20175;-55
2022/06/12 00:15:41;;;;;;;6.05;2.50;;;28.30;90.10;;;;;;5007022;28;20031;-55
2022/06/12 00:18:08;;;;;;;5.82;2.67;;;28.30;90.20;;;;;;5006151;28;20175;-47
2022/06/12 00:20:36;;;;;;;8.48;2.65;;;28.30;90.20;;;;;;5006360;28;20022;-48
2022/06/12 00:23:10;;;;;;;7.10;2.28;;;28.30;90.30;;;;;;5005379;28;20023;-47
2022/06/12 00:25:37;;;;;;;8.32;2.35;;;28.30;90.40;;;;;;5005876;28;20210;-58
2022/06/12 00:28:05;;;;;;;7.20;2.20;;;28.20;90.50;;;;;;5005659;28;20086;-54
2022/06/12 00:30:33;;;;;;;5.55;2.00;;;28.20;90.50;;;;;;5005935;28;20340;-55
2022/06/12 00:33:00;;;;;;;6.47;2.33;;;28.20;90.60;;;;;;5006004;28;20075;-53
2022/06/12 00:35:31;;;;;;;5.38;1.85;;;28.30;90.70;;;;;;5005873;28;20037;-57
2022/06/12 00:37:58;;;;;;;6.35;3.05;;;28.20;90.70;;;;;;5006021;28;20033;-53
2022/06/12 00:40:25;;;;;;;10.55;3.85;;;28.20;90.80;;;;;;5006048;28;20085;-47
2022/06/12 00:42:58;;;;;;;5.75;2.60;;;28.20;90.90;;;;;;5005981;28;20305;-54
2022/06/12 00:45:40;;;;;;;10.13;4.45;;;28.20;90.90;;;;;;5006053;28;20054;-53
2022/06/12 00:48:17;;;;;;;8.40;4.53;;;28.10;91.00;;;;;;5005687;28;20046;-52
2022/06/12 00:51:20;;;;;;;7.55;3.10;;;28.10;90.90;;;;;;5004712;28;20036;-50
2022/06/12 00:53:56;;;;;;;;;;;28.10;91.00;;;;;;4946311;29;20086;-54
2022/06/12 00:56:27;;;;;;;5.68;2.40;;;28.10;91.10;;;;;;4998296;28;20216;-56
2022/06/12 00:59:02;;;;;;;5.50;2.40;;;28.10;91.10;;;;;;5005620;28;20022;-52
2022/06/12 01:01:40;;;;;;;6.32;2.30;;;28.00;91.10;;;;;;5005258;28;20034;-56
2022/06/12 01:06:56;;;;;;;4.72;1.70;;;28.00;91.10;;;;;;5005351;28;20022;-54
2022/06/12 01:09:28;;;;;;;6.18;1.95;;;28.00;91.20;;;;;;5005254;28;20022;-55
2022/06/12 01:11:57;;;;;;;6.60;2.45;;;28.00;91.20;;;;;;5005270;28;20026;-58
2022/06/12 01:14:27;;;;;;;3.42;1.77;;;28.00;91.20;;;;;;5005399;28;20085;-56
2022/06/12 01:16:57;;;;;;;6.13;1.80;;;28.00;91.30;;;;;;5005329;28;20033;-55
2022/06/12 01:19:49;;;;;;;7.07;2.30;;;28.00;91.30;;;;;;5004908;28;20018;-54
2022/06/12 01:22:34;;;;;;;5.20;2.05;;;28.10;91.30;;;;;;4978893;28;20030;-54
2022/06/12 01:25:43;;;;;;;11.25;3.28;;;28.00;91.30;;;;;;5005463;28;20184;-54
2022/06/12 01:28:37;;;;;;;9.70;4.90;;;28.00;91.40;;;;;;5004664;28;20038;-59
2022/06/12 01:31:38;;;;;;;11.10;4.45;;;28.00;91.40;;;;;;5004766;28;20046;-52
2022/06/12 01:34:18;;;;;;;9.52;4.38;;;27.90;91.30;;;;;;5004806;28;20336;-50
2022/06/12 01:37:14;;;;;;;9.75;3.53;;;27.90;91.30;;;;;;5004990;28;20118;-52
2022/06/12 01:40:08;;;;;;;8.48;3.65;;;27.90;91.40;;;;;;5004973;28;20030;-54
2022/06/12 01:43:02;;;;;;;9.35;3.58;;;27.90;91.40;;;;;;5004695;28;20018;-57
2022/06/12 01:45:32;;;;;;;8.82;3.45;;;27.90;91.40;;;;;;5005112;28;20026;-54
2022/06/12 01:48:11;;;;;;;8.40;3.53;;;27.90;91.40;;;;;;5004629;28;20357;-49
2022/06/12 01:50:47;;;;;;;6.82;3.30;;;27.90;91.40;;;;;;5005211;28;20034;-50
2022/06/12 01:53:41;;;;;;;21.75;4.38;;;27.90;91.40;;;;;;5003360;28;20051;-50
2022/06/12 01:56:24;;;;;;;21.85;4.50;;;27.90;91.40;;;;;;4994258;28;20058;-53
2022/06/12 01:59:13;;;;;;;15.30;3.90;;;27.90;91.40;;;;;;5004516;28;20026;-53
2022/06/12 02:01:53;;;;;;;16.10;3.90;;;27.80;91.40;;;;;;5004495;28;20097;-52
2022/06/12 02:04:31;;;;;;;12.18;3.78;;;27.80;91.30;;;;;;5004570;28;20034;-51
2022/06/12 02:07:21;;;;;;;14.48;3.17;;;27.80;91.50;;;;;;5004489;28;20026;-52
2022/06/12 02:10:01;;;;;;;14.95;3.78;;;27.80;91.30;;;;;;5004505;28;20027;-52
2022/06/12 02:15:33;;;;;;;10.52;2.88;;;27.80;91.30;;;;;;5004509;28;20101;-52
2022/06/12 02:18:25;;;;;;;14.38;2.78;;;27.80;91.20;;;;;;5004359;28;20026;-53
2022/06/12 02:21:03;;;;;;;5.75;2.70;;;27.80;91.30;;;;;;5004704;28;20038;-52
2022/06/12 02:23:56;;;;;;;8.10;2.92;;;27.80;91.30;;;;;;5002884;28;20026;-53
2022/06/12 02:26:34;;;;;;;12.63;2.90;;;27.70;91.50;;;;;;4959035;28;20042;-53
2022/06/12 02:29:13;;;;;;;8.27;2.63;;;27.70;91.40;;;;;;4999560;28;20022;-50
2022/06/12 02:31:43;;;;;;;9.48;2.42;;;27.60;91.50;;;;;;4963544;29;20227;-48
2022/06/12 02:34:17;;;;;;;7.28;2.50;;;27.60;91.60;;;;;;4964769;28;20030;-49
2022/06/12 02:36:50;;;;;;;9.48;2.72;;;27.50;91.70;;;;;;4964974;29;20023;-44
2022/06/12 02:39:49;;;;;;;7.93;2.40;;;27.40;91.80;;;;;;4965114;28;20027;-47
2022/06/12 02:42:25;;;;;;;7.28;2.38;;;27.40;91.80;;;;;;4969114;28;20051;-47
2022/06/12 02:45:08;;;;;;;5.43;2.50;;;27.40;92.00;;;;;;4969406;28;20046;-46
2022/06/12 02:47:37;;;;;;;7.68;2.60;;;27.40;92.00;;;;;;4960212;29;20059;-49
2022/06/12 02:50:06;;;;;;;8.70;2.67;;;27.30;92.10;;;;;;4959564;29;20098;-43
2022/06/12 02:53:02;;;;;;;8.00;2.50;;;27.20;92.20;;;;;;4958410;29;20026;-53
2022/06/12 02:55:44;;;;;;;6.00;3.47;;;27.20;92.30;;;;;;4954986;29;20054;-46
2022/06/12 02:58:46;;;;;;;10.32;6.70;;;27.10;92.50;;;;;;4957914;29;20319;-51
2022/06/12 03:01:16;;;;;;;8.30;4.22;;;27.10;92.40;;;;;;4959635;28;20031;-55
2022/06/12 03:04:13;;;;;;;10.00;3.50;;;27.20;92.30;;;;;;4957219;28;20059;-47
2022/06/12 03:06:40;;;;;;;8.38;4.10;;;27.10;92.30;;;;;;4952047;29;20051;-47
2022/06/12 03:09:07;;;;;;;8.70;3.97;;;27.10;92.60;;;;;;4949662;29;20363;-44
2022/06/12 03:11:41;;;;;;;9.57;3.50;;;27.10;92.40;;;;;;4958101;29;20051;-48
2022/06/12 03:14:14;;;;;;;6.68;3.50;;;27.10;92.40;;;;;;4968592;28;20255;-42
2022/06/12 03:16:43;;;;;;;12.90;3.67;;;27.10;92.40;;;;;;4951773;29;20370;-48
2022/06/12 03:19:18;;;;;;;13.23;8.13;;;27.10;92.50;;;;;;4949418;29;20023;-50
2022/06/12 03:22:25;;;;;;;11.25;4.85;;;27.00;92.60;;;;;;4949413;29;20018;-49
2022/06/12 03:25:25;;;;;;;7.13;3.67;;;27.10;92.60;;;;;;4928562;29;20060;-44
2022/06/12 03:27:55;;;;;;;11.63;4.38;;;27.10;92.60;;;;;;4949140;29;20019;-44
2022/06/12 03:30:47;;;;;;;8.60;3.45;;;27.10;92.70;;;;;;4970251;28;20358;-44
2022/06/12 03:33:14;;;;;;;8.48;3.90;;;27.00;92.90;;;;;;4987719;28;20085;-47
2022/06/12 03:36:06;;;;;;;10.32;3.63;;;27.00;93.00;;;;;;4988018;28;20057;-47
2022/06/12 03:38:38;;;;;;;10.18;3.22;;;26.90;93.10;;;;;;4968205;28;20053;-45
2022/06/12 03:41:07;;;;;;;;;;;26.90;93.40;;;;;;5008057;28;20030;-49
2022/06/12 03:43:46;;;;;;;7.45;3.00;;;26.80;93.60;;;;;;5006961;28;19902;-53
2022/06/12 03:46:42;;;;;;;9.77;3.42;;;26.70;93.80;;;;;;5007501;28;20027;-48
2022/06/12 03:49:15;;;;;;;10.05;2.92;;;26.60;93.90;;;;;;5006654;28;20072;-42
2022/06/12 03:52:14;;;;;;;5.43;2.33;;;26.60;94.00;;;;;;4987159;28;20027;-43
2022/06/12 03:55:00;;;;;;;8.80;2.97;;;26.70;94.00;;;;;;4971296;28;20043;-45
2022/06/12 03:57:56;;;;;;;7.95;3.00;;;26.60;93.80;;;;;;4987307;28;20030;-46
2022/06/12 04:00:32;;;;;;;6.45;2.70;;;26.60;93.90;;;;;;4987325;28;20310;-44
2022/06/12 04:03:15;;;;;;;8.15;2.60;;;26.60;93.90;;;;;;4987175;28;20026;-46
2022/06/12 04:05:50;;;;;;;7.57;2.83;;;26.70;93.80;;;;;;4987473;28;20027;-43
2022/06/12 04:08:36;;;;;;;5.90;2.13;;;26.70;93.80;;;;;;4987052;28;20027;-47
2022/06/12 04:11:05;;;;;;;8.85;2.90;;;26.60;93.90;;;;;;5003389;28;20054;-48
2022/06/12 04:13:34;;;;;;;6.20;2.67;;;26.60;94.00;;;;;;4993472;28;20049;-47
2022/06/12 04:16:07;;;;;;;8.20;2.47;;;26.60;93.90;;;;;;4997208;28;20026;-44
2022/06/12 04:18:34;;;;;;;9.80;2.80;;;26.70;93.90;;;;;;4996460;28;20285;-44
2022/06/12 04:21:22;;;;;;;6.13;2.63;;;26.70;93.80;;;;;;4995002;28;20027;-48
2022/06/12 04:23:54;;;;;;;11.90;5.85;;;26.70;93.90;;;;;;4992937;28;20018;-47
2022/06/12 04:26:42;;;;;;;7.32;3.55;;;26.60;93.90;;;;;;4996707;28;20014;-43
2022/06/12 04:29:12;;;;;;;5.30;2.50;;;26.60;94.00;;;;;;4994426;28;20214;-45
2022/06/12 04:31:41;;;;;;;10.52;2.80;;;26.60;93.90;;;;;;4996392;28;20068;-50
2022/06/12 04:34:13;;;;;;;4.13;2.35;;;26.60;94.00;;;;;;4995148;28;20089;-48
2022/06/12 04:36:42;;;;;;;7.68;2.55;;;26.60;93.90;;;;;;4994402;28;20054;-43
2022/06/12 04:39:12;;;;;;;5.25;2.88;;;26.60;93.80;;;;;;4989842;28;20138;-47
2022/06/12 04:41:38;;;;;;;8.10;2.65;;;26.70;93.80;;;;;;4986347;28;20384;-48
2022/06/12 04:44:07;;;;;;;9.18;2.80;;;26.80;93.70;;;;;;4986642;28;20081;-59
2022/06/12 04:46:35;;;;;;;6.85;2.53;;;26.80;93.60;;;;;;4986532;28;20318;-46
2022/06/12 04:49:03;;;;;;;7.57;2.67;;;26.80;93.50;;;;;;4986349;28;20034;-56
2022/06/12 04:51:31;;;;;;;5.93;2.85;;;26.90;93.50;;;;;;4989045;28;20245;-49
2022/06/12 04:53:58;;;;;;;6.72;2.53;;;26.90;93.30;;;;;;4985614;28;20037;-49
2022/06/12 04:56:31;;;;;;;6.90;2.33;;;26.90;93.30;;;;;;4999299;28;20038;-52
2022/06/12 04:58:57;;;;;;;9.07;2.88;;;26.90;93.20;;;;;;4985990;28;20322;-51
2022/06/12 05:01:24;;;;;;;9.05;2.50;;;27.00;93.20;;;;;;4994598;28;20326;-52
2022/06/12 05:03:51;;;;;;;7.88;2.55;;;27.00;93.20;;;;;;4986688;28;20093;-49
2022/06/12 05:06:19;;;;;;;5.45;2.05;;;27.00;93.10;;;;;;4989598;28;20034;-51
2022/06/12 05:08:47;;;;;;;5.22;2.08;;;27.00;93.10;;;;;;5003612;28;20023;-55
2022/06/12 05:11:15;;;;;;;7.65;2.30;;;27.00;93.20;;;;;;5003778;28;20203;-50
2022/06/12 05:13:42;;;;;;;8.10;2.38;;;27.00;93.20;;;;;;5000490;28;20049;-51
2022/06/12 05:16:54;;;;;;;9.38;2.70;;;27.00;93.20;;;;;;5003373;28;20218;-49
2022/06/12 05:19:24;;;;;;;10.15;2.78;;;27.00;93.20;;;;;;4968250;28;20039;-57
2022/06/12 05:21:51;;;;;;;7.53;2.35;;;27.00;93.10;;;;;;4985202;28;20023;-57
2022/06/12 05:24:18;;;;;;;9.90;2.53;;;27.10;93.10;;;;;;4983830;28;20026;-49
2022/06/12 05:26:48;;;;;;;13.25;2.80;;;27.00;93.10;;;;;;4984967;28;20054;-55
2022/06/12 05:29:22;;;;;;;6.97;2.53;;;27.00;93.10;;;;;;4984921;28;20090;-49
2022/06/12 05:31:48;;;;;;;7.00;2.17;;;27.00;93.10;;;;;;4984961;28;20037;-51
2022/06/12 05:34:16;;;;;;;10.82;2.70;;;27.00;93.10;;;;;;4985025;28;20090;-48
2022/06/12 05:36:43;;;;;;;6.78;2.28;;;27.00;93.10;;;;;;4999328;28;20022;-50
2022/06/12 05:39:10;;;;;;;7.70;2.55;;;27.00;93.10;;;;;;5004166;28;20022;-53
2022/06/12 05:41:37;;;;;;;8.32;2.30;;;27.00;93.10;;;;;;5003914;28;20030;-54
2022/06/12 05:44:04;;;;;;;14.07;2.95;;;27.00;93.00;;;;;;5003951;28;20302;-54
2022/06/12 05:46:31;;;;;;;8.70;2.42;;;27.00;93.00;;;;;;5003746;28;20213;-53
2022/06/12 05:48:58;;;;;;;8.45;2.83;;;27.00;93.00;;;;;;5003468;28;20026;-54
2022/06/12 05:51:25;;;;;;;6.50;2.25;;;27.00;92.90;;;;;;5003445;28;20022;-49
2022/06/12 05:53:51;;;;;;;11.75;2.78;;;27.00;92.90;;;;;;5003853;28;20046;-48
2022/06/12 05:56:20;;;;;;;13.43;5.90;;;27.00;93.00;;;;;;4990899;28;20046;-54
2022/06/12 05:58:47;;;;;;;14.98;5.90;;;27.00;92.90;;;;;;4984726;28;20042;-50
2022/06/12 06:01:16;;;;;;;12.25;5.90;;;27.00;92.90;;;;;;4993321;28;20026;-49
2022/06/12 06:03:43;;;;;;;14.88;5.60;;;27.00;92.90;;;;;;5003842;28;20061;-49
2022/06/12 06:06:15;;;;;;;13.80;5.10;;;27.00;92.90;;;;;;5004332;28;20345;-48
2022/06/12 06:08:41;;;;;;;11.20;5.20;;;27.00;92.90;;;;;;5003888;28;20084;-51
2022/06/12 06:11:08;;;;;;;13.70;4.78;;;27.00;92.90;;;;;;5004326;28;20053;-51
2022/06/12 06:13:35;;;;;;;11.85;5.22;;;27.00;92.90;;;;;;5003854;28;20342;-58
2022/06/12 06:16:02;;;;;;;10.90;4.80;;;27.00;92.90;;;;;;5004000;28;20249;-50
2022/06/12 06:18:28;;;;;;;12.70;4.80;;;26.90;92.90;;;;;;5003651;28;20028;-53
2022/06/12 06:20:55;;;;;;;12.00;4.40;;;26.90;92.90;;;;;;5003635;28;20037;-50
2022/06/12 06:23:22;;;;;;;10.23;4.13;;;26.90;92.90;;;;;;5004269;28;20026;-48
2022/06/12 06:25:48;;;;;;;8.70;3.55;;;26.90;92.90;;;;;;5004589;28;20030;-49
2022/06/12 06:28:16;;;;;;;12.02;3.40;;;26.90;92.90;;;;;;4994936;28;20030;-48
2022/06/12 06:30:43;;;;;;;12.40;3.13;;;26.90;92.90;;;;;;4984551;28;20051;-54
2022/06/12 06:33:10;;;;;;;7.70;3.08;;;26.90;92.90;;;;;;4984525;28;20054;-49
2022/06/12 06:35:38;;;;;;;13.93;3.53;;;26.90;92.90;;;;;;4985021;28;20110;-55
2022/06/12 06:38:05;;;;;;;12.88;3.30;;;26.90;92.90;;;;;;4984763;28;20314;-53
2022/06/12 06:40:33;;;;;;;10.95;3.25;;;26.90;92.90;;;;;;4984790;28;20067;-52
2022/06/12 06:43:00;;;;;;;9.18;3.13;;;26.80;92.90;;;;;;4984855;28;20029;-54
2022/06/12 06:48:13;;;;;;;9.10;3.60;;;26.80;93.00;;;;;;4984655;28;20090;-55
2022/06/12 06:50:40;;;;;;;9.90;3.30;;;26.80;92.90;;;;;;4984950;28;20311;-53
2022/06/12 06:53:07;;;;;;;10.27;2.90;;;26.90;93.00;;;;;;4992539;28;20030;-48
2022/06/12 06:55:34;;;;;;;12.05;3.22;;;26.80;92.90;;;;;;5004331;28;20114;-51
2022/06/12 06:58:01;;;;;;;10.60;2.90;;;26.80;93.00;;;;;;5004047;28;20030;-46
2022/06/12 07:00:32;;;;;;;13.35;2.88;;;26.90;93.00;;;;;;5004005;28;20302;-52
2022/06/12 07:02:59;;;;;;;5.80;2.50;;;26.80;93.10;;;;;;5003690;28;20037;-53
2022/06/12 07:05:26;;;;;;;10.35;3.22;;;26.80;93.20;;;;;;5003916;28;20541;-54
2022/06/12 07:07:53;;;;;;;11.20;2.45;;;26.80;93.20;;;;;;5003725;28;20022;-47
2022/06/12 07:10:24;;;;;;;10.68;2.83;;;26.80;93.20;;;;;;5004164;28;20072;-59
2022/06/12 07:12:52;;;;;;;7.73;2.30;;;26.80;93.20;;;;;;5003900;28;20222;-49
2022/06/12 07:15:20;;;;;;;9.20;2.30;;;26.80;93.20;;;;;;5003969;28;20030;-51
2022/06/12 07:17:47;;;;;;;8.50;2.53;;;26.80;93.20;;;;;;4991727;28;20373;-51
2022/06/12 07:20:18;;;;;;;10.07;3.00;;;26.80;93.20;;;;;;4984387;28;20100;-54
2022/06/12 07:22:44;;;;;;;5.93;2.38;;;26.80;93.20;;;;;;4984382;28;20147;-58
2022/06/12 07:25:13;;;;;;;8.88;2.45;;;26.80;93.20;;;;;;4984462;28;20031;-55
2022/06/12 07:27:40;;;;;;;7.15;2.78;;;26.80;93.20;;;;;;4986784;28;20018;-49
2022/06/12 07:30:09;;;;;;;7.57;2.60;;;26.80;93.30;;;;;;4987644;28;20054;-48
2022/06/12 07:32:36;;;;;;;8.40;3.00;;;26.80;93.30;;;;;;4987804;28;20034;-51
2022/06/12 07:35:03;;;;;;;6.60;2.75;;;26.80;93.30;;;;;;4987759;28;20101;-50
2022/06/12 07:37:30;;;;;;;11.25;3.05;;;26.80;93.30;;;;;;4987544;28;20033;-51
2022/06/12 07:39:57;;;;;;;7.88;2.85;;;26.80;93.20;;;;;;4988605;28;20169;-54
2022/06/12 07:42:23;;;;;;;9.68;2.65;;;26.80;93.20;;;;;;5006988;28;20033;-47
2022/06/12 07:44:50;;;;;;;4.22;2.33;;;26.80;93.30;;;;;;5007227;28;20046;-52
2022/06/12 07:47:17;;;;;;;9.07;2.80;;;26.80;93.30;;;;;;5006896;28;20064;-47
2022/06/12 07:49:43;;;;;;;7.80;2.75;;;26.70;93.30;;;;;;5006932;28;20026;-49
2022/06/12 07:52:12;;;;;;;9.48;2.92;;;26.70;93.20;;;;;;5006823;28;20038;-47
2022/06/12 07:54:40;;;;;;;8.02;3.15;;;26.80;93.30;;;;;;5006841;28;20026;-47
2022/06/12 07:57:07;;;;;;;6.18;2.50;;;26.80;93.40;;;;;;5006661;28;20049;-52
2022/06/12 07:59:34;;;;;;;6.53;2.58;;;26.70;93.30;;;;;;5006772;28;20344;-47
2022/06/12 08:02:00;;;;;;;8.27;2.80;;;26.70;93.40;;;;;;4997534;28;20031;-53
2022/06/12 08:04:27;;;;;;;9.38;2.80;;;26.70;93.30;;;;;;4987179;28;20033;-50
2022/06/12 08:06:54;;;;;;;11.38;2.85;;;26.70;93.40;;;;;;4987115;28;20019;-47
2022/06/12 08:09:21;;;;;;;8.02;3.00;;;26.70;93.30;;;;;;4987168;28;20033;-55
2022/06/12 08:11:50;;;;;;;9.48;3.00;;;26.70;93.40;;;;;;4987292;28;20027;-48
2022/06/12 08:14:18;;;;;;;11.93;3.53;;;26.60;93.30;;;;;;4986950;28;20464;-53
2022/06/12 08:16:45;;;;;;;11.50;3.88;;;26.60;93.30;;;;;;4986952;28;20030;-51
2022/06/12 08:21:59;;;;;;;9.13;3.35;;;26.60;93.40;;;;;;4986890;28;20041;-49
2022/06/12 08:24:26;;;;;;;8.25;3.25;;;26.60;93.40;;;;;;4986781;28;20035;-53
2022/06/12 08:26:52;;;;;;;9.10;3.03;;;26.60;93.40;;;;;;4998360;28;20018;-45
2022/06/12 08:29:19;;;;;;;13.07;3.63;;;26.60;93.50;;;;;;5006038;28;20026;-47
2022/06/12 08:31:50;;;;;;;6.72;3.15;;;26.60;93.50;;;;;;5006153;28;20038;-54
2022/06/12 08:34:25;;;;;;;9.50;3.47;;;26.60;93.50;;;;;;5006171;28;20046;-46
2022/06/12 08:36:55;;;;;;;9.68;3.30;;;26.60;93.50;;;;;;5006051;28;20041;-47
2022/06/12 08:39:22;;;;;;;8.20;3.40;;;26.60;93.40;;;;;;5005816;28;20234;-52
2022/06/12 08:42:08;;;;;;;7.43;3.33;;;26.60;93.40;;;;;;5006021;28;20038;-53
2022/06/12 08:44:47;;;;;;;10.80;3.38;;;26.60;93.50;;;;;;5005895;28;20072;-53
2022/06/12 08:47:32;;;;;;;6.18;3.13;;;26.50;93.50;;;;;;5006052;28;20080;-47
2022/06/12 08:50:25;;;;;;;7.55;3.60;;;26.60;93.50;;;;;;5005623;28;20257;-47
2022/06/12 08:53:00;;;;;;;12.23;3.33;;;26.50;93.50;;;;;;4998916;28;20322;-50
2022/06/12 08:55:49;;;;;;;9.80;3.28;;;26.50;93.50;;;;;;4986710;28;20037;-56
2022/06/12 08:58:44;;;;;;;6.60;3.25;;;26.50;93.50;;;;;;4985965;28;20026;-47
2022/06/12 09:01:12;;;;;;;8.70;3.72;;;26.50;93.60;;;;;;4986428;28;20155;-46
2022/06/12 09:03:51;;;;;;;11.32;3.55;;;26.50;93.70;;;;;;4985909;28;20019;-45
2022/06/12 09:06:30;;;;;;;8.63;3.13;;;26.50;93.70;;;;;;4985024;28;20027;-45
2022/06/12 09:09:21;;;;;;;10.48;3.63;;;26.50;93.70;;;;;;4985739;28;20042;-48
2022/06/12 09:12:16;;;;;;;8.10;3.13;;;26.50;93.80;;;;;;4985842;28;20026;-48
2022/06/12 09:14:55;;;;;;;12.98;4.00;;;26.50;93.80;;;;;;4984051;28;20069;-55
2022/06/12 09:17:45;;;;;;;9.45;3.17;;;26.50;93.90;;;;;;4985716;28;20028;-48
2022/06/12 09:20:17;;;;;;;10.32;3.30;;;26.40;93.90;;;;;;4985841;28;20081;-52
2022/06/12 09:23:28;;;;;;;13.02;3.20;;;26.50;94.00;;;;;;4985851;28;20030;-51
2022/06/12 09:26:06;;;;;;;10.13;3.42;;;26.50;94.00;;;;;;4950193;28;20046;-52
2022/06/12 09:28:35;;;;;;;6.68;2.80;;;26.50;94.00;;;;;;4985784;28;20042;-56
2022/06/12 09:31:17;;;;;;;10.52;3.00;;;26.50;94.00;;;;;;4985185;28;20051;-55
2022/06/12 09:33:48;;;;;;;7.15;2.85;;;26.50;94.00;;;;;;4995611;28;20030;-53
2022/06/12 09:36:33;;;;;;;9.32;2.90;;;26.50;94.00;;;;;;5004707;28;20037;-50
2022/06/12 09:39:27;;;;;;;7.55;3.20;;;26.40;94.00;;;;;;5004654;28;20026;-51
2022/06/12 09:42:19;;;;;;;7.97;2.80;;;26.50;94.00;;;;;;5004714;28;20030;-50
2022/06/12 09:44:51;;;;;;;8.10;3.13;;;26.50;94.00;;;;;;5004736;28;20085;-50
2022/06/12 09:47:33;;;;;;;12.82;3.42;;;26.50;94.00;;;;;;4999911;28;20326;-50
2022/06/12 09:50:02;;;;;;;10.45;3.30;;;26.50;94.10;;;;;;4985001;28;20222;-51
2022/06/12 09:52:45;;;;;;;10.98;3.22;;;26.50;94.10;;;;;;5003776;28;20026;-51
2022/06/12 09:55:19;;;;;;;8.40;3.63;;;26.40;94.00;;;;;;5004728;28;20037;-53
2022/06/12 09:57:59;;;;;;;9.82;3.40;;;26.40;94.00;;;;;;5004575;28;20033;-55
2022/06/12 10:00:39;;;;;;;11.95;3.25;;;26.50;94.10;;;;;;5004547;28;20037;-50
2022/06/12 10:03:23;;;;;;;11.43;3.42;;;26.50;94.10;;;;;;5004398;28;20302;-49
2022/06/12 10:06:00;;;;;;;8.23;3.58;;;26.40;94.00;;;;;;5004795;28;20298;-54
2022/06/12 10:08:53;;;;;;;11.13;3.58;;;26.40;94.00;;;;;;5004563;28;20082;-50
2022/06/12 10:11:21;;;;;;;7.85;3.13;;;26.40;94.00;;;;;;5004553;28;20092;-49
2022/06/12 10:13:55;;;;;;;9.15;3.40;;;26.40;94.00;;;;;;5004445;28;20230;-58
2022/06/12 10:16:45;;;;;;;10.23;3.60;;;26.40;94.00;;;;;;4990048;28;20102;-52
2022/06/12 10:19:18;;;;;;;9.80;3.30;;;26.40;93.90;;;;;;4984869;28;20049;-56
2022/06/12 10:21:50;;;;;;;9.52;3.60;;;26.40;93.90;;;;;;4984874;28;20015;-52
2022/06/12 10:24:19;;;;;;;12.75;4.13;;;26.40;93.90;;;;;;4984994;28;20034;-54
2022/06/12 10:26:58;;;;;;;9.57;3.72;;;26.40;93.90;;;;;;4984704;28;20314;-50
2022/06/12 10:29:25;;;;;;;10.68;3.65;;;26.40;94.00;;;;;;4984589;28;20031;-58
2022/06/12 10:32:01;;;;;;;9.93;3.80;;;26.30;94.00;;;;;;4984616;28;20222;-52
2022/06/12 10:34:32;;;;;;;11.88;3.67;;;26.30;94.00;;;;;;4994806;28;20030;-51
2022/06/12 10:37:24;;;;;;;8.70;3.33;;;26.40;94.00;;;;;;4984741;28;20099;-51
2022/06/12 10:40:06;;;;;;;9.70;3.20;;;26.30;93.90;;;;;;4985055;28;20030;-53
2022/06/12 10:42:44;;;;;;;11.82;3.42;;;26.30;94.00;;;;;;4999139;28;20022;-51
2022/06/12 10:45:37;;;;;;;9.27;2.97;;;26.30;94.10;;;;;;5004356;28;20035;-51
2022/06/12 10:48:21;;;;;;;8.63;3.10;;;26.30;94.10;;;;;;5001926;28;20031;-50
2022/06/12 10:50:57;;;;;;;9.57;3.08;;;26.30;94.10;;;;;;4998664;28;20030;-52
2022/06/12 10:53:27;;;;;;;10.25;3.15;;;26.30;94.10;;;;;;4984489;28;20049;-49
2022/06/12 10:55:59;;;;;;;7.60;3.17;;;26.30;94.10;;;;;;4985117;28;20038;-49
2022/06/12 10:58:44;;;;;;;;;;;26.30;94.10;;;;;;4984937;28;20021;-56
2022/06/12 11:01:52;;;;;;;12.10;3.45;;;26.30;94.10;;;;;;4985532;28;19943;-54
2022/06/12 11:04:19;;;;;;;11.85;3.50;;;26.30;94.10;;;;;;4948112;29;20042;-55
2022/06/12 11:07:17;;;;;;;8.90;3.25;;;26.30;94.20;;;;;;4947954;29;20333;-53
2022/06/12 11:10:12;;;;;;;8.48;3.15;;;26.30;94.10;;;;;;4962642;28;20042;-56
2022/06/12 11:13:06;;;;;;;14.10;3.35;;;26.30;94.10;;;;;;4988385;28;20040;-56
2022/06/12 11:15:57;;;;;;;9.85;3.45;;;26.30;94.10;;;;;;4988389;28;20099;-53
2022/06/12 11:18:42;;;;;;;13.77;3.85;;;26.30;94.00;;;;;;4988019;28;20318;-56
2022/06/12 11:21:15;;;;;;;11.02;2.95;;;26.30;94.00;;;;;;4988406;28;20027;-55
2022/06/12 11:24:07;;;;;;;11.07;3.47;;;26.30;94.00;;;;;;4988228;28;20314;-48
2022/06/12 11:27:05;;;;;;;11.15;2.90;;;26.30;94.00;;;;;;4984251;28;20039;-53
2022/06/12 11:29:44;;;;;;;14.00;3.25;;;26.30;94.00;;;;;;4987874;28;20093;-52
2022/06/12 11:32:38;;;;;;;12.43;3.63;;;26.30;94.00;;;;;;4987843;28;20036;-57
2022/06/12 11:35:17;;;;;;;13.60;3.33;;;26.30;93.90;;;;;;4987916;28;20093;-48
2022/06/12 11:38:26;;;;;;;9.60;2.83;;;26.30;94.00;;;;;;5003864;28;20026;-54
2022/06/12 11:41:08;;;;;;;12.02;3.90;;;26.30;94.00;;;;;;4958054;28;20047;-53
2022/06/12 11:44:00;;;;;;;16.30;3.50;;;26.30;94.00;;;;;;4987583;28;20011;-50
2022/06/12 11:46:39;;;;;;;9.48;3.72;;;26.30;94.00;;;;;;4995009;28;20093;-50
2022/06/12 11:49:09;;;;;;;9.00;3.20;;;26.30;94.00;;;;;;5007259;28;20245;-53
2022/06/12 11:52:19;;;;;;;9.10;3.20;;;26.30;94.00;;;;;;5007153;28;20023;-46
2022/06/12 11:55:00;;;;;;;9.13;3.03;;;26.30;94.00;;;;;;4984036;28;20035;-50
2022/06/12 11:57:29;;;;;;;10.55;3.17;;;26.30;93.90;;;;;;5007110;28;20014;-51
2022/06/12 12:00:28;;;;;;;9.10;3.00;;;26.30;93.90;;;;;;5007130;28;20353;-46
2022/06/12 12:03:32;;;;;;;14.70;3.67;;;26.30;94.00;;;;;;5006691;28;20045;-52
2022/06/12 12:06:24;;;;;;;12.93;3.42;;;26.30;93.90;;;;;;5006655;28;20026;-47
2022/06/12 12:09:01;;;;;;;10.07;3.17;;;26.30;93.90;;;;;;5006564;28;20360;-48
2022/06/12 12:11:44;;;;;;;12.52;3.70;;;26.30;93.80;;;;;;5006728;28;20337;-50
2022/06/12 12:14:20;;;;;;;11.35;3.42;;;26.30;93.80;;;;;;4986731;28;20097;-48
2022/06/12 12:17:18;;;;;;;13.77;3.38;;;26.30;93.80;;;;;;4987022;28;20081;-51
2022/06/12 12:19:56;;;;;;;10.32;3.83;;;26.30;93.70;;;;;;4986746;28;20039;-60
2022/06/12 12:22:47;;;;;;;13.85;4.50;;;26.30;93.80;;;;;;4986701;28;20023;-56
2022/06/12 12:25:31;;;;;;;11.88;4.20;;;26.30;93.90;;;;;;4987124;28;20019;-55
2022/06/12 12:28:03;;;;;;;13.27;4.15;;;26.20;94.10;;;;;;4986850;28;20029;-55
2022/06/12 12:30:38;;;;;;;11.35;4.45;;;26.20;94.10;;;;;;4986541;28;20245;-56
2022/06/12 12:33:12;;;;;;;13.73;4.63;;;26.10;94.10;;;;;;4986524;28;20035;-56
2022/06/12 12:41:39;;;;;;;14.68;5.22;;;26.10;94.30;;;;;;4986760;28;20029;-54
2022/06/12 12:44:06;;;;;;;14.20;4.97;;;26.10;94.20;;;;;;4986444;28;20195;-56
2022/06/12 12:46:49;;;;;;;16.90;4.45;;;26.10;94.50;;;;;;4986438;28;20050;-52
2022/06/12 12:49:30;;;;;;;12.40;4.40;;;26.10;94.60;;;;;;4986415;28;20043;-55
2022/06/12 12:52:14;;;;;;;12.63;4.40;;;26.10;94.70;;;;;;4986522;28;20027;-58
2022/06/12 12:54:55;;;;;;;11.63;5.18;;;26.20;94.80;;;;;;4985965;28;20027;-57
2022/06/12 12:57:43;;;;;;;17.08;6.45;;;26.20;94.80;;;;;;4985918;28;20027;-60
2022/06/12 13:00:19;;;;;;;14.23;6.28;;;26.20;94.80;;;;;;4986449;28;20310;-56
2022/06/12 13:02:54;;;;;;;12.35;4.97;;;26.20;94.90;;;;;;4986193;28;20022;-53
2022/06/12 13:05:25;;;;;;;10.43;4.60;;;26.20;95.00;;;;;;4986315;28;20081;-55
2022/06/12 13:08:29;;;;;;;14.75;5.78;;;26.20;95.10;;;;;;4985984;28;20026;-59
2022/06/12 13:11:07;;;;;;;15.70;5.50;;;26.20;95.20;;;;;;4986350;28;20090;-60
2022/06/12 13:13:52;;;;;;;53.25;10.23;;;26.20;95.40;;;;;;4986133;28;20027;-56
2022/06/12 13:16:46;;;;;;;33.85;7.38;;;26.10;95.60;;;;;;4986288;28;20143;-54
2022/06/12 13:19:38;;;;;;;20.92;5.88;;;26.10;95.70;;;;;;4985670;28;20214;-55
2022/06/12 13:22:20;;;;;;;18.77;4.93;;;26.10;95.70;;;;;;4991769;28;20022;-55
2022/06/12 13:25:06;;;;;;;15.35;4.03;;;26.10;95.70;;;;;;4990077;28;20353;-55
2022/06/12 13:27:45;;;;;;;9.02;3.03;;;26.10;95.50;;;;;;5005077;28;20029;-53
2022/06/12 13:30:21;;;;;;;10.52;2.70;;;26.10;95.40;;;;;;5004991;28;20065;-55
2022/06/12 13:32:48;;;;;;;8.95;2.60;;;26.00;95.20;;;;;;5005338;28;20222;-53
2022/06/12 13:35:29;;;;;;;8.23;1.92;;;26.00;95.20;;;;;;5005490;28;20030;-56
2022/06/12 13:37:59;;;;;;;5.72;1.77;;;26.00;95.10;;;;;;4992464;28;20097;-62
2022/06/12 13:40:32;;;;;;;9.02;1.80;;;26.00;94.80;;;;;;4985675;28;20030;-59
2022/06/12 13:43:14;;;;;;;7.40;1.90;;;26.00;94.80;;;;;;4985471;28;20015;-57
2022/06/12 13:46:27;;;;;;;5.10;1.02;;;25.90;94.90;;;;;;4995366;28;20050;-57
2022/06/12 13:48:56;;;;;;;5.20;1.10;;;25.90;94.70;;;;;;4983026;28;20319;-58